sensor_id;sensor_type;location;lat;lon;timestamp;P1;durP1;ratioP1;P2;durP2;ratioP2
15287;SDS011;7745;48.708;9.026;2022-08-01T00:01:33;3.27;;;2.07;;
15287;SDS011;7745;48.708;9.026;2022-08-01T00:04:00;2.97;;;1.93;;
15287;SDS011;7745;48.708;9.026;2022-08-01T00:06:28;2.10;;;1.87;;
15287;SDS011;7745;48.708;9.026;2022-08-01T00:08:55;3.57;;;1.90;;
15287;SDS011;7745;48.708;9.026;2022-08-01T00:11:24;4.63;;;1.90;;
15287;SDS011;7745;48.708;9.026;2022-08-01T00:13:51;5.10;;;1.93;;
15287;SDS011;7745;48.708;9.026;2022-08-01T00:16:18;2.50;;;1.73;;
15287;SDS011;7745;48.708;9.026;2022-08-01T00:18:47;2.43;;;2.03;;
15287;SDS011;7745;48.708;9.026;2022-08-01T00:21:14;2.20;;;1.87;;
15287;SDS011;7745;48.708;9.026;2022-08-01T00:23:41;2.00;;;1.70;;
15287;SDS011;7745;48.708;9.026;2022-08-01T00:26:08;3.30;;;2.10;;
15287;SDS011;7745;48.708;9.026;2022-08-01T00:28:36;5.53;;;1.93;;
15287;SDS011;7745;48.708;9.026;2022-08-01T00:31:03;2.70;;;2.00;;
15287;SDS011;7745;48.708;9.026;2022-08-01T00:33:30;3.60;;;2.07;;
15287;SDS011;7745;48.708;9.026;2022-08-01T00:35:57;3.07;;;1.80;;
15287;SDS011;7745;48.708;9.026;2022-08-01T00:38:24;2.37;;;1.93;;
15287;SDS011;7745;48.708;9.026;2022-08-01T00:40:51;2.27;;;2.07;;
15287;SDS011;7745;48.708;9.026;2022-08-01T00:43:17;2.70;;;2.00;;
15287;SDS011;7745;48.708;9.026;2022-08-01T00:45:46;2.10;;;1.83;;
15287;SDS011;7745;48.708;9.026;2022-08-01T00:48:13;2.50;;;2.20;;
15287;SDS011;7745;48.708;9.026;2022-08-01T00:50:40;2.50;;;2.30;;
15287;SDS011;7745;48.708;9.026;2022-08-01T00:53:07;3.93;;;2.10;;
15287;SDS011;7745;48.708;9.026;2022-08-01T00:55:34;3.13;;;2.00;;
15287;SDS011;7745;48.708;9.026;2022-08-01T00:58:00;2.40;;;2.20;;
15287;SDS011;7745;48.708;9.026;2022-08-01T01:00:28;3.20;;;2.20;;
15287;SDS011;7745;48.708;9.026;2022-08-01T01:02:56;5.03;;;1.97;;
15287;SDS011;7745;48.708;9.026;2022-08-01T01:05:23;2.50;;;2.30;;
15287;SDS011;7745;48.708;9.026;2022-08-01T01:07:59;2.93;;;2.17;;
15287;SDS011;7745;48.708;9.026;2022-08-01T01:10:31;3.90;;;2.40;;
15287;SDS011;7745;48.708;9.026;2022-08-01T01:13:06;2.87;;;2.30;;
15287;SDS011;7745;48.708;9.026;2022-08-01T01:15:39;3.33;;;2.30;;
15287;SDS011;7745;48.708;9.026;2022-08-01T01:18:12;4.60;;;2.30;;
15287;SDS011;7745;48.708;9.026;2022-08-01T01:20:44;2.30;;;2.10;;
15287;SDS011;7745;48.708;9.026;2022-08-01T01:23:23;2.73;;;2.10;;
15287;SDS011;7745;48.708;9.026;2022-08-01T01:29:05;2.30;;;2.10;;
15287;SDS011;7745;48.708;9.026;2022-08-01T01:31:40;3.27;;;2.20;;
15287;SDS011;7745;48.708;9.026;2022-08-01T01:34:11;3.30;;;2.20;;
15287;SDS011;7745;48.708;9.026;2022-08-01T01:36:40;2.63;;;2.43;;
15287;SDS011;7745;48.708;9.026;2022-08-01T01:39:09;2.87;;;2.40;;
15287;SDS011;7745;48.708;9.026;2022-08-01T01:41:39;2.93;;;1.93;;
15287;SDS011;7745;48.708;9.026;2022-08-01T01:44:08;2.70;;;2.50;;
15287;SDS011;7745;48.708;9.026;2022-08-01T01:46:36;4.27;;;2.63;;
15287;SDS011;7745;48.708;9.026;2022-08-01T01:49:04;3.50;;;2.47;;
15287;SDS011;7745;48.708;9.026;2022-08-01T01:51:35;2.87;;;2.53;;
15287;SDS011;7745;48.708;9.026;2022-08-01T01:54:03;3.23;;;2.83;;
15287;SDS011;7745;48.708;9.026;2022-08-01T01:56:32;2.47;;;2.20;;
15287;SDS011;7745;48.708;9.026;2022-08-01T01:59:01;2.47;;;2.20;;
15287;SDS011;7745;48.708;9.026;2022-08-01T02:01:31;2.57;;;2.37;;
15287;SDS011;7745;48.708;9.026;2022-08-01T02:04:00;2.43;;;2.23;;
15287;SDS011;7745;48.708;9.026;2022-08-01T02:06:28;3.23;;;2.67;;
15287;SDS011;7745;48.708;9.026;2022-08-01T02:08:57;4.60;;;2.63;;
15287;SDS011;7745;48.708;9.026;2022-08-01T02:11:26;2.70;;;2.33;;
15287;SDS011;7745;48.708;9.026;2022-08-01T02:13:55;2.77;;;2.40;;
15287;SDS011;7745;48.708;9.026;2022-08-01T02:16:25;3.13;;;2.63;;
15287;SDS011;7745;48.708;9.026;2022-08-01T02:18:56;3.97;;;2.83;;
15287;SDS011;7745;48.708;9.026;2022-08-01T02:21:26;3.33;;;2.83;;
15287;SDS011;7745;48.708;9.026;2022-08-01T02:23:56;2.33;;;2.13;;
15287;SDS011;7745;48.708;9.026;2022-08-01T02:26:29;4.90;;;2.60;;
15287;SDS011;7745;48.708;9.026;2022-08-01T02:28:59;4.73;;;3.00;;
15287;SDS011;7745;48.708;9.026;2022-08-01T02:31:32;3.03;;;2.53;;
15287;SDS011;7745;48.708;9.026;2022-08-01T02:34:05;3.20;;;2.60;;
15287;SDS011;7745;48.708;9.026;2022-08-01T02:36:35;3.83;;;2.90;;
15287;SDS011;7745;48.708;9.026;2022-08-01T02:39:06;2.80;;;2.60;;
15287;SDS011;7745;48.708;9.026;2022-08-01T02:41:36;5.40;;;2.50;;
15287;SDS011;7745;48.708;9.026;2022-08-01T02:44:07;4.40;;;3.00;;
15287;SDS011;7745;48.708;9.026;2022-08-01T02:46:38;2.90;;;2.60;;
15287;SDS011;7745;48.708;9.026;2022-08-01T02:49:09;4.93;;;3.00;;
15287;SDS011;7745;48.708;9.026;2022-08-01T02:51:37;4.60;;;2.60;;
15287;SDS011;7745;48.708;9.026;2022-08-01T02:54:07;4.20;;;2.63;;
15287;SDS011;7745;48.708;9.026;2022-08-01T02:56:36;3.57;;;2.40;;
15287;SDS011;7745;48.708;9.026;2022-08-01T02:59:07;5.97;;;2.97;;
15287;SDS011;7745;48.708;9.026;2022-08-01T03:01:36;3.77;;;2.17;;
15287;SDS011;7745;48.708;9.026;2022-08-01T03:04:05;2.80;;;2.60;;
15287;SDS011;7745;48.708;9.026;2022-08-01T03:06:35;3.77;;;2.73;;
15287;SDS011;7745;48.708;9.026;2022-08-01T03:09:03;2.93;;;2.70;;
15287;SDS011;7745;48.708;9.026;2022-08-01T03:11:32;3.77;;;2.67;;
15287;SDS011;7745;48.708;9.026;2022-08-01T03:14:02;5.87;;;2.53;;
15287;SDS011;7745;48.708;9.026;2022-08-01T03:16:34;3.63;;;2.80;;
15287;SDS011;7745;48.708;9.026;2022-08-01T03:19:03;3.03;;;2.60;;
15287;SDS011;7745;48.708;9.026;2022-08-01T03:21:34;5.93;;;2.77;;
15287;SDS011;7745;48.708;9.026;2022-08-01T03:24:03;3.20;;;2.90;;
15287;SDS011;7745;48.708;9.026;2022-08-01T03:26:33;3.40;;;3.10;;
15287;SDS011;7745;48.708;9.026;2022-08-01T03:29:03;3.33;;;3.03;;
15287;SDS011;7745;48.708;9.026;2022-08-01T03:31:32;5.10;;;3.13;;
15287;SDS011;7745;48.708;9.026;2022-08-01T03:34:01;3.57;;;3.03;;
15287;SDS011;7745;48.708;9.026;2022-08-01T03:36:28;3.10;;;2.80;;
15287;SDS011;7745;48.708;9.026;2022-08-01T03:38:59;3.67;;;3.37;;
15287;SDS011;7745;48.708;9.026;2022-08-01T03:41:31;3.60;;;3.10;;
15287;SDS011;7745;48.708;9.026;2022-08-01T03:44:03;3.30;;;2.73;;
15287;SDS011;7745;48.708;9.026;2022-08-01T03:46:35;3.10;;;2.80;;
15287;SDS011;7745;48.708;9.026;2022-08-01T03:49:12;3.70;;;3.30;;
15287;SDS011;7745;48.708;9.026;2022-08-01T03:51:43;3.17;;;2.87;;
15287;SDS011;7745;48.708;9.026;2022-08-01T03:54:14;3.27;;;2.97;;
15287;SDS011;7745;48.708;9.026;2022-08-01T03:56:43;4.97;;;2.70;;
15287;SDS011;7745;48.708;9.026;2022-08-01T03:59:12;5.47;;;3.50;;
15287;SDS011;7745;48.708;9.026;2022-08-01T04:01:42;5.10;;;2.93;;
15287;SDS011;7745;48.708;9.026;2022-08-01T04:04:10;4.13;;;3.30;;
15287;SDS011;7745;48.708;9.026;2022-08-01T04:06:37;3.60;;;3.30;;
15287;SDS011;7745;48.708;9.026;2022-08-01T04:09:06;2.97;;;2.77;;
15287;SDS011;7745;48.708;9.026;2022-08-01T04:11:36;3.77;;;3.20;;
15287;SDS011;7745;48.708;9.026;2022-08-01T04:14:03;5.67;;;3.30;;
15287;SDS011;7745;48.708;9.026;2022-08-01T04:16:30;4.10;;;3.17;;
15287;SDS011;7745;48.708;9.026;2022-08-01T04:18:57;3.03;;;2.77;;
15287;SDS011;7745;48.708;9.026;2022-08-01T04:21:24;3.10;;;2.90;;
15287;SDS011;7745;48.708;9.026;2022-08-01T04:23:54;3.67;;;3.27;;
15287;SDS011;7745;48.708;9.026;2022-08-01T04:26:24;5.00;;;2.93;;
15287;SDS011;7745;48.708;9.026;2022-08-01T04:28:53;5.70;;;3.43;;
15287;SDS011;7745;48.708;9.026;2022-08-01T04:31:22;3.63;;;3.33;;
15287;SDS011;7745;48.708;9.026;2022-08-01T04:33:51;2.90;;;2.60;;
15287;SDS011;7745;48.708;9.026;2022-08-01T04:36:22;3.17;;;2.87;;
15287;SDS011;7745;48.708;9.026;2022-08-01T04:38:50;3.47;;;3.03;;
15287;SDS011;7745;48.708;9.026;2022-08-01T04:41:21;5.43;;;3.33;;
15287;SDS011;7745;48.708;9.026;2022-08-01T04:43:49;3.50;;;3.20;;
15287;SDS011;7745;48.708;9.026;2022-08-01T04:46:18;3.57;;;3.27;;
15287;SDS011;7745;48.708;9.026;2022-08-01T04:48:45;3.93;;;3.30;;
15287;SDS011;7745;48.708;9.026;2022-08-01T04:51:13;3.80;;;3.40;;
15287;SDS011;7745;48.708;9.026;2022-08-01T04:53:41;4.10;;;3.10;;
15287;SDS011;7745;48.708;9.026;2022-08-01T04:56:09;3.73;;;3.27;;
15287;SDS011;7745;48.708;9.026;2022-08-01T04:58:38;3.87;;;3.27;;
15287;SDS011;7745;48.708;9.026;2022-08-01T05:01:05;3.30;;;3.03;;
15287;SDS011;7745;48.708;9.026;2022-08-01T05:03:33;3.40;;;3.00;;
15287;SDS011;7745;48.708;9.026;2022-08-01T05:06:00;5.37;;;3.70;;
15287;SDS011;7745;48.708;9.026;2022-08-01T05:08:27;9.97;;;3.33;;
15287;SDS011;7745;48.708;9.026;2022-08-01T05:10:53;6.37;;;3.13;;
15287;SDS011;7745;48.708;9.026;2022-08-01T05:13:20;6.20;;;3.50;;
15287;SDS011;7745;48.708;9.026;2022-08-01T05:15:47;4.90;;;3.20;;
15287;SDS011;7745;48.708;9.026;2022-08-01T05:18:14;7.60;;;3.07;;
15287;SDS011;7745;48.708;9.026;2022-08-01T05:20:42;9.97;;;3.10;;
15287;SDS011;7745;48.708;9.026;2022-08-01T05:23:09;20.37;;;3.77;;
15287;SDS011;7745;48.708;9.026;2022-08-01T05:25:37;6.37;;;2.83;;
15287;SDS011;7745;48.708;9.026;2022-08-01T05:28:04;5.20;;;3.53;;
15287;SDS011;7745;48.708;9.026;2022-08-01T05:30:31;5.37;;;3.27;;
15287;SDS011;7745;48.708;9.026;2022-08-01T05:32:58;15.80;;;3.63;;
15287;SDS011;7745;48.708;9.026;2022-08-01T05:35:25;9.57;;;3.50;;
15287;SDS011;7745;48.708;9.026;2022-08-01T05:37:53;5.83;;;2.97;;
15287;SDS011;7745;48.708;9.026;2022-08-01T05:40:20;6.33;;;3.10;;
15287;SDS011;7745;48.708;9.026;2022-08-01T05:42:47;6.10;;;2.77;;
15287;SDS011;7745;48.708;9.026;2022-08-01T05:45:14;8.17;;;3.20;;
15287;SDS011;7745;48.708;9.026;2022-08-01T05:47:40;3.90;;;2.70;;
15287;SDS011;7745;48.708;9.026;2022-08-01T05:50:15;4.50;;;2.77;;
15287;SDS011;7745;48.708;9.026;2022-08-01T05:52:42;34.83;;;4.47;;
15287;SDS011;7745;48.708;9.026;2022-08-01T05:55:10;3.97;;;2.90;;
15287;SDS011;7745;48.708;9.026;2022-08-01T05:57:37;13.03;;;3.43;;
15287;SDS011;7745;48.708;9.026;2022-08-01T06:00:05;8.70;;;3.07;;
15287;SDS011;7745;48.708;9.026;2022-08-01T06:02:33;5.27;;;2.93;;
15287;SDS011;7745;48.708;9.026;2022-08-01T06:04:59;6.83;;;3.00;;
15287;SDS011;7745;48.708;9.026;2022-08-01T06:07:26;4.43;;;3.00;;
15287;SDS011;7745;48.708;9.026;2022-08-01T06:09:53;6.43;;;3.20;;
15287;SDS011;7745;48.708;9.026;2022-08-01T06:12:21;3.93;;;2.43;;
15287;SDS011;7745;48.708;9.026;2022-08-01T06:14:48;6.87;;;2.67;;
15287;SDS011;7745;48.708;9.026;2022-08-01T06:17:15;3.73;;;2.70;;
15287;SDS011;7745;48.708;9.026;2022-08-01T06:19:41;2.20;;;2.00;;
15287;SDS011;7745;48.708;9.026;2022-08-01T06:22:08;4.43;;;2.40;;
15287;SDS011;7745;48.708;9.026;2022-08-01T06:24:35;7.10;;;2.30;;
15287;SDS011;7745;48.708;9.026;2022-08-01T06:27:02;2.30;;;1.97;;
15287;SDS011;7745;48.708;9.026;2022-08-01T06:29:31;5.10;;;2.20;;
15287;SDS011;7745;48.708;9.026;2022-08-01T06:31:58;4.40;;;1.90;;
15287;SDS011;7745;48.708;9.026;2022-08-01T06:34:25;2.87;;;2.17;;
15287;SDS011;7745;48.708;9.026;2022-08-01T06:36:52;4.85;;;2.08;;
15287;SDS011;7745;48.708;9.026;2022-08-01T06:39:19;5.28;;;1.80;;
15287;SDS011;7745;48.708;9.026;2022-08-01T06:41:46;2.95;;;1.70;;
15287;SDS011;7745;48.708;9.026;2022-08-01T06:44:13;3.60;;;1.98;;
15287;SDS011;7745;48.708;9.026;2022-08-01T06:46:41;1.50;;;1.40;;
15287;SDS011;7745;48.708;9.026;2022-08-01T06:49:08;2.38;;;1.52;;
15287;SDS011;7745;48.708;9.026;2022-08-01T06:51:34;3.42;;;1.80;;
15287;SDS011;7745;48.708;9.026;2022-08-01T06:54:01;3.53;;;1.88;;
15287;SDS011;7745;48.708;9.026;2022-08-01T06:56:29;2.78;;;1.45;;
15287;SDS011;7745;48.708;9.026;2022-08-01T06:58:56;4.32;;;1.63;;
15287;SDS011;7745;48.708;9.026;2022-08-01T07:01:25;2.83;;;1.60;;
15287;SDS011;7745;48.708;9.026;2022-08-01T07:03:54;2.67;;;1.52;;
15287;SDS011;7745;48.708;9.026;2022-08-01T07:06:21;1.50;;;1.40;;
15287;SDS011;7745;48.708;9.026;2022-08-01T07:08:49;2.92;;;1.45;;
15287;SDS011;7745;48.708;9.026;2022-08-01T07:11:16;4.20;;;1.55;;
15287;SDS011;7745;48.708;9.026;2022-08-01T07:13:43;3.78;;;1.48;;
15287;SDS011;7745;48.708;9.026;2022-08-01T07:16:10;3.83;;;1.65;;
15287;SDS011;7745;48.708;9.026;2022-08-01T07:18:37;3.40;;;1.48;;
15287;SDS011;7745;48.708;9.026;2022-08-01T07:21:05;3.15;;;1.60;;
15287;SDS011;7745;48.708;9.026;2022-08-01T07:23:33;1.73;;;1.35;;
15287;SDS011;7745;48.708;9.026;2022-08-01T07:26:00;3.40;;;1.50;;
15287;SDS011;7745;48.708;9.026;2022-08-01T07:28:27;2.63;;;1.33;;
15287;SDS011;7745;48.708;9.026;2022-08-01T07:30:54;2.30;;;1.60;;
15287;SDS011;7745;48.708;9.026;2022-08-01T07:33:21;2.13;;;1.20;;
15287;SDS011;7745;48.708;9.026;2022-08-01T07:35:48;3.03;;;1.70;;
15287;SDS011;7745;48.708;9.026;2022-08-01T07:38:16;4.03;;;1.90;;
15287;SDS011;7745;48.708;9.026;2022-08-01T07:40:43;1.55;;;1.40;;
15287;SDS011;7745;48.708;9.026;2022-08-01T07:43:10;2.65;;;1.38;;
15287;SDS011;7745;48.708;9.026;2022-08-01T07:45:37;2.85;;;1.50;;
15287;SDS011;7745;48.708;9.026;2022-08-01T07:48:06;3.10;;;1.77;;
15287;SDS011;7745;48.708;9.026;2022-08-01T07:50:34;2.50;;;1.38;;
15287;SDS011;7745;48.708;9.026;2022-08-01T07:53:00;3.47;;;1.80;;
15287;SDS011;7745;48.708;9.026;2022-08-01T07:55:30;5.13;;;1.95;;
15287;SDS011;7745;48.708;9.026;2022-08-01T07:57:56;4.18;;;2.20;;
15287;SDS011;7745;48.708;9.026;2022-08-01T08:00:26;4.25;;;1.90;;
15287;SDS011;7745;48.708;9.026;2022-08-01T08:02:53;2.85;;;1.95;;
15287;SDS011;7745;48.708;9.026;2022-08-01T08:05:23;17.63;;;2.60;;
15287;SDS011;7745;48.708;9.026;2022-08-01T08:07:50;4.57;;;1.70;;
15287;SDS011;7745;48.708;9.026;2022-08-01T08:10:17;3.00;;;2.10;;
15287;SDS011;7745;48.708;9.026;2022-08-01T08:12:46;2.00;;;1.80;;
15287;SDS011;7745;48.708;9.026;2022-08-01T08:15:13;3.75;;;1.92;;
15287;SDS011;7745;48.708;9.026;2022-08-01T08:17:40;3.20;;;2.17;;
15287;SDS011;7745;48.708;9.026;2022-08-01T08:20:07;2.22;;;2.03;;
15287;SDS011;7745;48.708;9.026;2022-08-01T08:22:35;2.28;;;2.08;;
15287;SDS011;7745;48.708;9.026;2022-08-01T08:25:03;2.70;;;2.13;;
15287;SDS011;7745;48.708;9.026;2022-08-01T08:27:34;2.80;;;1.90;;
15287;SDS011;7745;48.708;9.026;2022-08-01T08:30:03;2.33;;;2.13;;
15287;SDS011;7745;48.708;9.026;2022-08-01T08:32:32;2.58;;;2.38;;
15287;SDS011;7745;48.708;9.026;2022-08-01T08:34:59;2.30;;;2.13;;
15287;SDS011;7745;48.708;9.026;2022-08-01T08:37:26;3.83;;;2.17;;
15287;SDS011;7745;48.708;9.026;2022-08-01T08:39:56;2.58;;;2.30;;
15287;SDS011;7745;48.708;9.026;2022-08-01T08:42:23;2.60;;;2.40;;
15287;SDS011;7745;48.708;9.026;2022-08-01T08:44:53;3.38;;;2.15;;
15287;SDS011;7745;48.708;9.026;2022-08-01T08:47:24;2.20;;;2.00;;
15287;SDS011;7745;48.708;9.026;2022-08-01T08:49:54;2.60;;;2.40;;
15287;SDS011;7745;48.708;9.026;2022-08-01T08:52:22;2.15;;;2.03;;
15287;SDS011;7745;48.708;9.026;2022-08-01T08:54:55;2.38;;;2.28;;
15287;SDS011;7745;48.708;9.026;2022-08-01T08:57:23;4.72;;;2.90;;
15287;SDS011;7745;48.708;9.026;2022-08-01T08:59:50;4.50;;;2.92;;
15287;SDS011;7745;48.708;9.026;2022-08-01T09:02:24;4.70;;;2.95;;
15287;SDS011;7745;48.708;9.026;2022-08-01T09:04:56;3.15;;;2.85;;
15287;SDS011;7745;48.708;9.026;2022-08-01T09:07:33;3.47;;;3.17;;
15287;SDS011;7745;48.708;9.026;2022-08-01T09:10:45;5.40;;;3.10;;
15287;SDS011;7745;48.708;9.026;2022-08-01T09:20:22;3.70;;;3.03;;
15287;SDS011;7745;48.708;9.026;2022-08-01T09:26:28;3.92;;;3.08;;
15287;SDS011;7745;48.708;9.026;2022-08-01T09:28:57;3.33;;;3.05;;
15287;SDS011;7745;48.708;9.026;2022-08-01T09:31:27;4.72;;;3.35;;
15287;SDS011;7745;48.708;9.026;2022-08-01T09:33:56;3.38;;;3.08;;
15287;SDS011;7745;48.708;9.026;2022-08-01T09:36:27;5.30;;;3.17;;
15287;SDS011;7745;48.708;9.026;2022-08-01T09:39:11;4.82;;;3.55;;
15287;SDS011;7745;48.708;9.026;2022-08-01T09:41:39;8.70;;;4.60;;
15287;SDS011;7745;48.708;9.026;2022-08-01T09:44:07;4.93;;;4.50;;
15287;SDS011;7745;48.708;9.026;2022-08-01T09:46:33;5.10;;;4.70;;
15287;SDS011;7745;48.708;9.026;2022-08-01T09:49:03;7.20;;;4.85;;
15287;SDS011;7745;48.708;9.026;2022-08-01T09:51:32;5.57;;;4.55;;
15287;SDS011;7745;48.708;9.026;2022-08-01T09:54:00;4.53;;;4.13;;
15287;SDS011;7745;48.708;9.026;2022-08-01T09:56:35;5.03;;;3.70;;
15287;SDS011;7745;48.708;9.026;2022-08-01T09:59:03;5.90;;;3.58;;
15287;SDS011;7745;48.708;9.026;2022-08-01T10:04:49;3.42;;;3.17;;
15287;SDS011;7745;48.708;9.026;2022-08-01T10:07:17;3.50;;;3.20;;
15287;SDS011;7745;48.708;9.026;2022-08-01T10:09:46;4.40;;;3.33;;
15287;SDS011;7745;48.708;9.026;2022-08-01T10:12:15;22.10;;;4.43;;
15287;SDS011;7745;48.708;9.026;2022-08-01T10:14:44;3.70;;;3.22;;
15287;SDS011;7745;48.708;9.026;2022-08-01T10:17:15;3.42;;;3.13;;
15287;SDS011;7745;48.708;9.026;2022-08-01T10:19:42;4.50;;;3.25;;
15287;SDS011;7745;48.708;9.026;2022-08-01T10:22:12;3.88;;;3.00;;
15287;SDS011;7745;48.708;9.026;2022-08-01T10:24:43;4.38;;;2.90;;
15287;SDS011;7745;48.708;9.026;2022-08-01T10:27:13;5.05;;;3.50;;
15287;SDS011;7745;48.708;9.026;2022-08-01T10:29:43;4.70;;;3.00;;
15287;SDS011;7745;48.708;9.026;2022-08-01T10:32:13;2.97;;;2.78;;
15287;SDS011;7745;48.708;9.026;2022-08-01T10:34:42;3.42;;;3.03;;
15287;SDS011;7745;48.708;9.026;2022-08-01T10:37:10;4.63;;;2.90;;
15287;SDS011;7745;48.708;9.026;2022-08-01T10:39:40;3.05;;;2.42;;
15287;SDS011;7745;48.708;9.026;2022-08-01T10:42:07;3.33;;;2.88;;
15287;SDS011;7745;48.708;9.026;2022-08-01T10:44:36;3.90;;;2.92;;
15287;SDS011;7745;48.708;9.026;2022-08-01T10:47:06;4.03;;;2.88;;
15287;SDS011;7745;48.708;9.026;2022-08-01T10:49:36;4.90;;;2.60;;
15287;SDS011;7745;48.708;9.026;2022-08-01T10:52:07;3.13;;;2.63;;
15287;SDS011;7745;48.708;9.026;2022-08-01T10:54:41;2.63;;;2.42;;
15287;SDS011;7745;48.708;9.026;2022-08-01T10:57:08;2.35;;;2.10;;
15287;SDS011;7745;48.708;9.026;2022-08-01T10:59:35;2.47;;;2.28;;
15287;SDS011;7745;48.708;9.026;2022-08-01T11:02:13;2.15;;;1.95;;
15287;SDS011;7745;48.708;9.026;2022-08-01T11:04:54;2.58;;;2.35;;
15287;SDS011;7745;48.708;9.026;2022-08-01T11:07:34;3.20;;;2.20;;
15287;SDS011;7745;48.708;9.026;2022-08-01T11:10:10;3.55;;;2.25;;
15287;SDS011;7745;48.708;9.026;2022-08-01T11:12:44;3.83;;;2.10;;
15287;SDS011;7745;48.708;9.026;2022-08-01T11:15:24;2.55;;;2.15;;
15287;SDS011;7745;48.708;9.026;2022-08-01T11:17:52;2.20;;;2.00;;
15287;SDS011;7745;48.708;9.026;2022-08-01T11:20:20;2.97;;;2.10;;
15287;SDS011;7745;48.708;9.026;2022-08-01T11:28:41;3.58;;;2.22;;
15287;SDS011;7745;48.708;9.026;2022-08-01T11:31:26;2.78;;;2.13;;
15287;SDS011;7745;48.708;9.026;2022-08-01T11:33:57;2.38;;;2.03;;
15287;SDS011;7745;48.708;9.026;2022-08-01T11:36:26;3.20;;;2.28;;
15287;SDS011;7745;48.708;9.026;2022-08-01T11:39:14;5.10;;;2.10;;
15287;SDS011;7745;48.708;9.026;2022-08-01T11:41:43;9.50;;;2.40;;
15287;SDS011;7745;48.708;9.026;2022-08-01T11:44:15;2.40;;;2.20;;
15287;SDS011;7745;48.708;9.026;2022-08-01T11:46:51;9.75;;;2.60;;
15287;SDS011;7745;48.708;9.026;2022-08-01T11:49:24;4.03;;;2.33;;
15287;SDS011;7745;48.708;9.026;2022-08-01T11:51:57;2.22;;;2.13;;
15287;SDS011;7745;48.708;9.026;2022-08-01T11:54:28;5.15;;;2.35;;
15287;SDS011;7745;48.708;9.026;2022-08-01T11:56:56;2.58;;;2.30;;
15287;SDS011;7745;48.708;9.026;2022-08-01T11:59:23;3.50;;;1.90;;
15287;SDS011;7745;48.708;9.026;2022-08-01T12:01:50;1.90;;;1.80;;
15287;SDS011;7745;48.708;9.026;2022-08-01T12:04:18;2.60;;;2.05;;
15287;SDS011;7745;48.708;9.026;2022-08-01T12:06:45;2.33;;;2.10;;
15287;SDS011;7745;48.708;9.026;2022-08-01T12:09:16;2.90;;;2.00;;
15287;SDS011;7745;48.708;9.026;2022-08-01T12:11:46;2.53;;;2.10;;
15287;SDS011;7745;48.708;9.026;2022-08-01T12:14:17;3.42;;;2.30;;
15287;SDS011;7745;48.708;9.026;2022-08-01T12:16:51;3.05;;;2.20;;
15287;SDS011;7745;48.708;9.026;2022-08-01T12:19:19;8.57;;;2.35;;
15287;SDS011;7745;48.708;9.026;2022-08-01T12:22:06;5.32;;;2.17;;
15287;SDS011;7745;48.708;9.026;2022-08-01T12:24:34;2.40;;;2.00;;
15287;SDS011;7745;48.708;9.026;2022-08-01T12:27:03;3.40;;;1.92;;
15287;SDS011;7745;48.708;9.026;2022-08-01T12:29:32;2.63;;;1.67;;
15287;SDS011;7745;48.708;9.026;2022-08-01T12:32:03;2.42;;;2.10;;
15287;SDS011;7745;48.708;9.026;2022-08-01T12:34:31;2.20;;;2.05;;
15287;SDS011;7745;48.708;9.026;2022-08-01T12:37:00;2.78;;;2.15;;
15287;SDS011;7745;48.708;9.026;2022-08-01T12:39:31;2.65;;;2.03;;
15287;SDS011;7745;48.708;9.026;2022-08-01T12:41:59;4.05;;;2.10;;
15287;SDS011;7745;48.708;9.026;2022-08-01T12:44:28;2.85;;;1.80;;
15287;SDS011;7745;48.708;9.026;2022-08-01T12:46:56;2.03;;;1.90;;
15287;SDS011;7745;48.708;9.026;2022-08-01T12:49:24;2.13;;;1.75;;
15287;SDS011;7745;48.708;9.026;2022-08-01T12:51:52;3.47;;;1.95;;
15287;SDS011;7745;48.708;9.026;2022-08-01T12:54:20;3.15;;;2.00;;
15287;SDS011;7745;48.708;9.026;2022-08-01T12:56:50;4.75;;;1.98;;
15287;SDS011;7745;48.708;9.026;2022-08-01T12:59:21;3.10;;;1.95;;
15287;SDS011;7745;48.708;9.026;2022-08-01T13:01:51;3.10;;;1.70;;
15287;SDS011;7745;48.708;9.026;2022-08-01T13:04:19;2.40;;;2.20;;
15287;SDS011;7745;48.708;9.026;2022-08-01T13:06:46;2.17;;;1.98;;
15287;SDS011;7745;48.708;9.026;2022-08-01T13:09:14;4.35;;;2.10;;
15287;SDS011;7745;48.708;9.026;2022-08-01T13:11:41;2.35;;;2.08;;
15287;SDS011;7745;48.708;9.026;2022-08-01T13:14:08;4.43;;;2.10;;
15287;SDS011;7745;48.708;9.026;2022-08-01T13:16:45;2.88;;;1.98;;
15287;SDS011;7745;48.708;9.026;2022-08-01T13:19:14;2.20;;;1.98;;
15287;SDS011;7745;48.708;9.026;2022-08-01T13:21:52;3.50;;;1.85;;
15287;SDS011;7745;48.708;9.026;2022-08-01T13:24:24;2.00;;;1.80;;
15287;SDS011;7745;48.708;9.026;2022-08-01T13:26:52;3.85;;;2.00;;
15287;SDS011;7745;48.708;9.026;2022-08-01T13:29:22;2.40;;;2.10;;
15287;SDS011;7745;48.708;9.026;2022-08-01T13:31:56;4.60;;;2.05;;
15287;SDS011;7745;48.708;9.026;2022-08-01T13:34:30;4.03;;;2.20;;
15287;SDS011;7745;48.708;9.026;2022-08-01T13:36:58;2.22;;;1.98;;
15287;SDS011;7745;48.708;9.026;2022-08-01T13:39:26;2.47;;;2.05;;
15287;SDS011;7745;48.708;9.026;2022-08-01T13:42:09;2.13;;;1.85;;
15287;SDS011;7745;48.708;9.026;2022-08-01T13:44:37;1.85;;;1.75;;
15287;SDS011;7745;48.708;9.026;2022-08-01T13:47:04;3.63;;;2.28;;
15287;SDS011;7745;48.708;9.026;2022-08-01T13:49:33;4.45;;;2.20;;
15287;SDS011;7745;48.708;9.026;2022-08-01T13:52:00;4.50;;;2.28;;
15287;SDS011;7745;48.708;9.026;2022-08-01T13:54:28;3.55;;;1.95;;
15287;SDS011;7745;48.708;9.026;2022-08-01T13:56:56;4.50;;;2.10;;
15287;SDS011;7745;48.708;9.026;2022-08-01T13:59:23;7.45;;;2.13;;
15287;SDS011;7745;48.708;9.026;2022-08-01T14:01:50;5.28;;;2.10;;
15287;SDS011;7745;48.708;9.026;2022-08-01T14:04:17;2.97;;;1.98;;
15287;SDS011;7745;48.708;9.026;2022-08-01T14:06:45;2.28;;;1.85;;
15287;SDS011;7745;48.708;9.026;2022-08-01T14:09:13;3.45;;;2.00;;
15287;SDS011;7745;48.708;9.026;2022-08-01T14:11:41;6.50;;;2.10;;
15287;SDS011;7745;48.708;9.026;2022-08-01T14:14:08;4.57;;;1.98;;
15287;SDS011;7745;48.708;9.026;2022-08-01T14:16:35;3.47;;;2.05;;
15287;SDS011;7745;48.708;9.026;2022-08-01T14:19:02;2.53;;;2.20;;
15287;SDS011;7745;48.708;9.026;2022-08-01T14:21:29;3.28;;;2.20;;
15287;SDS011;7745;48.708;9.026;2022-08-01T14:23:57;3.50;;;2.25;;
15287;SDS011;7745;48.708;9.026;2022-08-01T14:26:24;3.83;;;1.90;;
15287;SDS011;7745;48.708;9.026;2022-08-01T14:28:51;2.17;;;1.75;;
15287;SDS011;7745;48.708;9.026;2022-08-01T14:31:18;5.03;;;2.08;;
15287;SDS011;7745;48.708;9.026;2022-08-01T14:33:45;3.05;;;1.60;;
15287;SDS011;7745;48.708;9.026;2022-08-01T14:36:12;2.33;;;1.83;;
15287;SDS011;7745;48.708;9.026;2022-08-01T14:38:39;2.05;;;1.85;;
15287;SDS011;7745;48.708;9.026;2022-08-01T14:41:07;3.05;;;1.80;;
15287;SDS011;7745;48.708;9.026;2022-08-01T14:43:34;2.70;;;2.05;;
15287;SDS011;7745;48.708;9.026;2022-08-01T14:46:01;2.05;;;1.73;;
15287;SDS011;7745;48.708;9.026;2022-08-01T14:48:29;2.25;;;1.67;;
15287;SDS011;7745;48.708;9.026;2022-08-01T14:50:55;3.17;;;1.70;;
15287;SDS011;7745;48.708;9.026;2022-08-01T14:53:22;2.63;;;2.13;;
15287;SDS011;7745;48.708;9.026;2022-08-01T14:55:49;2.70;;;1.70;;
15287;SDS011;7745;48.708;9.026;2022-08-01T14:58:18;2.42;;;1.70;;
15287;SDS011;7745;48.708;9.026;2022-08-01T15:00:44;3.63;;;1.83;;
15287;SDS011;7745;48.708;9.026;2022-08-01T15:03:11;2.03;;;1.83;;
15287;SDS011;7745;48.708;9.026;2022-08-01T15:05:38;2.70;;;1.70;;
15287;SDS011;7745;48.708;9.026;2022-08-01T15:08:05;2.28;;;1.90;;
15287;SDS011;7745;48.708;9.026;2022-08-01T15:10:32;3.22;;;1.85;;
15287;SDS011;7745;48.708;9.026;2022-08-01T15:12:59;2.33;;;1.88;;
15287;SDS011;7745;48.708;9.026;2022-08-01T15:15:28;4.53;;;2.33;;
15287;SDS011;7745;48.708;9.026;2022-08-01T15:17:55;3.80;;;1.80;;
15287;SDS011;7745;48.708;9.026;2022-08-01T15:20:21;2.08;;;1.88;;
15287;SDS011;7745;48.708;9.026;2022-08-01T15:22:49;3.15;;;2.10;;
15287;SDS011;7745;48.708;9.026;2022-08-01T15:25:16;2.13;;;1.98;;
15287;SDS011;7745;48.708;9.026;2022-08-01T15:27:43;3.28;;;1.90;;
15287;SDS011;7745;48.708;9.026;2022-08-01T15:30:11;4.70;;;2.13;;
15287;SDS011;7745;48.708;9.026;2022-08-01T15:32:39;2.50;;;1.75;;
15287;SDS011;7745;48.708;9.026;2022-08-01T15:35:06;2.00;;;1.75;;